アピア の空港の天気 - METARとTAF

ファレオロ国際空港(サモア) ( NSFA / APW ) - サモア アピア
飛行場実況気象(Metar)
観測時間11/27 22:00 WSST (11/27 09:00 UTC)
風向・風速東南東 2m/s
視程10km以上
天気現象
少しの雲 雲底高度 670m
気温24℃
湿度100%
気圧1013hPa
METARNSFA 270900Z 12004KT 9999 FEW022 24/24 Q1013
過去の天気等 Google飛行場航空写真 Wunderground天気予報

過去48時間のMETAR

飛行場予報(TAF)
発表時間: 11/27 18:11 WSST (11/27 05:11 UTC)
予報対象時間: 27日19時 WSST ~ 28日19時 WSST
風向・風速北東 5m/s
視程10km以上
少しの雲 雲底高度 610m
28日1時 WSST ~ 28日7時 WSST に 確率 40% で一時的に
視程5000m
天気現象雷雨
全天の8割程度の雲 雲底高度 460m
少しの積乱雲 雲底高度 490m
TAF NSFA 270511Z 2706/2806 04009KT 9999 FEW020
PROB40 TEMPO 2712/2718 5000 TSRA BKN015 FEW016CB